sensor_id;sensor_type;location;lat;lon;timestamp;temperature;humidity
36374;DHT22;22399;51.346;12.372;2023-10-08T00:01:11;18.50;99.90
36374;DHT22;22399;51.346;12.372;2023-10-08T00:03:42;18.40;99.90
36374;DHT22;22399;51.346;12.372;2023-10-08T00:06:17;18.50;99.90
36374;DHT22;22399;51.346;12.372;2023-10-08T00:08:47;18.50;99.90
36374;DHT22;22399;51.346;12.372;2023-10-08T00:11:16;18.50;99.90
36374;DHT22;22399;51.346;12.372;2023-10-08T00:13:45;18.50;99.90
36374;DHT22;22399;51.346;12.372;2023-10-08T00:16:17;18.50;99.90
36374;DHT22;22399;51.346;12.372;2023-10-08T00:18:49;18.40;99.90
36374;DHT22;22399;51.346;12.372;2023-10-08T00:21:20;18.40;99.90
36374;DHT22;22399;51.346;12.372;2023-10-08T00:23:54;18.40;99.90
36374;DHT22;22399;51.346;12.372;2023-10-08T00:26:27;18.30;99.90
36374;DHT22;22399;51.346;12.372;2023-10-08T00:28:59;18.10;99.90
36374;DHT22;22399;51.346;12.372;2023-10-08T00:31:29;18.00;99.90
36374;DHT22;22399;51.346;12.372;2023-10-08T00:34:04;18.00;99.90
36374;DHT22;22399;51.346;12.372;2023-10-08T00:36:38;18.00;99.90
36374;DHT22;22399;51.346;12.372;2023-10-08T00:39:09;18.00;99.90
36374;DHT22;22399;51.346;12.372;2023-10-08T00:41:41;18.10;99.90
36374;DHT22;22399;51.346;12.372;2023-10-08T00:44:12;18.10;99.90
36374;DHT22;22399;51.346;12.372;2023-10-08T00:46:45;18.10;99.90
36374;DHT22;22399;51.346;12.372;2023-10-08T00:49:17;18.00;99.90
36374;DHT22;22399;51.346;12.372;2023-10-08T00:51:55;18.00;99.90
36374;DHT22;22399;51.346;12.372;2023-10-08T00:54:53;18.00;99.90
36374;DHT22;22399;51.346;12.372;2023-10-08T00:57:36;18.00;99.90
36374;DHT22;22399;51.346;12.372;2023-10-08T01:00:10;17.90;99.90
36374;DHT22;22399;51.346;12.372;2023-10-08T01:02:51;18.00;99.90
36374;DHT22;22399;51.346;12.372;2023-10-08T01:05:28;18.00;99.90
36374;DHT22;22399;51.346;12.372;2023-10-08T01:08:15;18.00;99.90
36374;DHT22;22399;51.346;12.372;2023-10-08T01:10:50;18.00;99.90
36374;DHT22;22399;51.346;12.372;2023-10-08T01:13:30;17.90;99.90
36374;DHT22;22399;51.346;12.372;2023-10-08T01:16:10;17.90;99.90
36374;DHT22;22399;51.346;12.372;2023-10-08T01:18:40;17.80;99.90
36374;DHT22;22399;51.346;12.372;2023-10-08T01:21:17;17.70;99.90
36374;DHT22;22399;51.346;12.372;2023-10-08T01:24:03;17.60;99.90
36374;DHT22;22399;51.346;12.372;2023-10-08T01:26:33;17.50;99.90
36374;DHT22;22399;51.346;12.372;2023-10-08T01:29:09;17.20;99.90
36374;DHT22;22399;51.346;12.372;2023-10-08T01:31:46;17.00;99.90
36374;DHT22;22399;51.346;12.372;2023-10-08T01:34:15;16.70;99.90
36374;DHT22;22399;51.346;12.372;2023-10-08T01:36:44;16.50;99.90
36374;DHT22;22399;51.346;12.372;2023-10-08T01:39:14;16.30;99.90
36374;DHT22;22399;51.346;12.372;2023-10-08T01:41:44;16.10;99.90
36374;DHT22;22399;51.346;12.372;2023-10-08T01:44:13;15.90;99.90
36374;DHT22;22399;51.346;12.372;2023-10-08T01:46:43;15.70;99.90
36374;DHT22;22399;51.346;12.372;2023-10-08T01:49:13;15.40;99.90
36374;DHT22;22399;51.346;12.372;2023-10-08T01:51:42;15.10;99.90
36374;DHT22;22399;51.346;12.372;2023-10-08T01:54:16;15.00;99.90
36374;DHT22;22399;51.346;12.372;2023-10-08T01:56:48;14.80;99.90
36374;DHT22;22399;51.346;12.372;2023-10-08T01:59:17;14.60;99.90
36374;DHT22;22399;51.346;12.372;2023-10-08T02:01:46;14.50;99.90
36374;DHT22;22399;51.346;12.372;2023-10-08T02:04:15;14.30;99.90
36374;DHT22;22399;51.346;12.372;2023-10-08T02:06:44;14.10;99.90
36374;DHT22;22399;51.346;12.372;2023-10-08T02:09:14;14.10;99.90
36374;DHT22;22399;51.346;12.372;2023-10-08T02:11:45;14.00;99.90
36374;DHT22;22399;51.346;12.372;2023-10-08T02:14:17;13.90;99.90
36374;DHT22;22399;51.346;12.372;2023-10-08T02:16:47;13.70;99.90
36374;DHT22;22399;51.346;12.372;2023-10-08T02:19:16;13.70;99.90
36374;DHT22;22399;51.346;12.372;2023-10-08T02:21:55;13.60;99.90
36374;DHT22;22399;51.346;12.372;2023-10-08T02:24:25;13.50;99.90
36374;DHT22;22399;51.346;12.372;2023-10-08T02:26:55;13.50;99.90
36374;DHT22;22399;51.346;12.372;2023-10-08T02:29:26;13.40;99.90
36374;DHT22;22399;51.346;12.372;2023-10-08T02:31:55;13.20;99.90
36374;DHT22;22399;51.346;12.372;2023-10-08T02:34:24;13.20;99.90
36374;DHT22;22399;51.346;12.372;2023-10-08T02:36:53;13.10;99.90
36374;DHT22;22399;51.346;12.372;2023-10-08T02:39:22;13.10;99.90
36374;DHT22;22399;51.346;12.372;2023-10-08T02:41:54;13.00;99.90
36374;DHT22;22399;51.346;12.372;2023-10-08T02:44:26;12.90;99.90
36374;DHT22;22399;51.346;12.372;2023-10-08T02:46:55;12.90;99.90
36374;DHT22;22399;51.346;12.372;2023-10-08T02:49:24;12.80;99.90
36374;DHT22;22399;51.346;12.372;2023-10-08T02:51:53;12.80;99.90
36374;DHT22;22399;51.346;12.372;2023-10-08T02:54:23;12.70;99.90
36374;DHT22;22399;51.346;12.372;2023-10-08T02:57:00;12.60;99.90
36374;DHT22;22399;51.346;12.372;2023-10-08T02:59:32;12.50;99.90
36374;DHT22;22399;51.346;12.372;2023-10-08T03:02:09;12.50;99.90
36374;DHT22;22399;51.346;12.372;2023-10-08T03:04:48;12.40;99.90
36374;DHT22;22399;51.346;12.372;2023-10-08T03:07:19;12.40;99.90
36374;DHT22;22399;51.346;12.372;2023-10-08T03:10:00;12.40;99.90
36374;DHT22;22399;51.346;12.372;2023-10-08T03:12:34;12.50;99.90
36374;DHT22;22399;51.346;12.372;2023-10-08T03:15:04;12.40;99.90
36374;DHT22;22399;51.346;12.372;2023-10-08T03:17:41;12.40;99.90
36374;DHT22;22399;51.346;12.372;2023-10-08T03:20:17;12.40;99.90
36374;DHT22;22399;51.346;12.372;2023-10-08T03:23:06;12.40;99.90
36374;DHT22;22399;51.346;12.372;2023-10-08T03:25:41;12.40;99.90
36374;DHT22;22399;51.346;12.372;2023-10-08T03:28:11;12.40;99.90
36374;DHT22;22399;51.346;12.372;2023-10-08T03:30:41;12.30;99.90
36374;DHT22;22399;51.346;12.372;2023-10-08T03:33:19;12.30;99.90
36374;DHT22;22399;51.346;12.372;2023-10-08T03:35:52;12.20;99.90
36374;DHT22;22399;51.346;12.372;2023-10-08T03:38:22;12.30;99.90
36374;DHT22;22399;51.346;12.372;2023-10-08T03:41:06;12.10;99.90
36374;DHT22;22399;51.346;12.372;2023-10-08T03:43:38;12.10;99.90
36374;DHT22;22399;51.346;12.372;2023-10-08T03:46:18;12.00;99.90
36374;DHT22;22399;51.346;12.372;2023-10-08T03:48:48;12.00;99.90
36374;DHT22;22399;51.346;12.372;2023-10-08T03:51:18;12.00;99.90
36374;DHT22;22399;51.346;12.372;2023-10-08T03:53:48;12.00;99.90
36374;DHT22;22399;51.346;12.372;2023-10-08T03:56:26;12.00;99.90
36374;DHT22;22399;51.346;12.372;2023-10-08T03:58:59;12.00;99.90
36374;DHT22;22399;51.346;12.372;2023-10-08T04:01:30;12.00;99.90
36374;DHT22;22399;51.346;12.372;2023-10-08T04:04:00;12.00;99.90
36374;DHT22;22399;51.346;12.372;2023-10-08T04:06:28;12.10;99.90
36374;DHT22;22399;51.346;12.372;2023-10-08T04:09:00;12.10;99.90
36374;DHT22;22399;51.346;12.372;2023-10-08T04:11:43;12.00;99.90
36374;DHT22;22399;51.346;12.372;2023-10-08T04:14:27;11.90;99.90
36374;DHT22;22399;51.346;12.372;2023-10-08T04:16:56;11.90;99.90
36374;DHT22;22399;51.346;12.372;2023-10-08T04:19:26;11.80;99.90
36374;DHT22;22399;51.346;12.372;2023-10-08T04:21:55;11.80;99.90
36374;DHT22;22399;51.346;12.372;2023-10-08T04:24:25;11.80;99.90
36374;DHT22;22399;51.346;12.372;2023-10-08T04:26:57;11.80;99.90
36374;DHT22;22399;51.346;12.372;2023-10-08T04:29:26;11.90;99.90
36374;DHT22;22399;51.346;12.372;2023-10-08T04:31:59;12.00;99.90
36374;DHT22;22399;51.346;12.372;2023-10-08T04:34:39;12.00;99.90
36374;DHT22;22399;51.346;12.372;2023-10-08T04:37:14;12.10;99.90
36374;DHT22;22399;51.346;12.372;2023-10-08T04:39:47;12.00;99.90
36374;DHT22;22399;51.346;12.372;2023-10-08T04:42:21;12.00;99.90
36374;DHT22;22399;51.346;12.372;2023-10-08T04:44:55;11.90;99.90
36374;DHT22;22399;51.346;12.372;2023-10-08T04:47:26;11.80;99.90
36374;DHT22;22399;51.346;12.372;2023-10-08T04:50:03;11.70;99.90
36374;DHT22;22399;51.346;12.372;2023-10-08T04:52:32;11.60;99.90
36374;DHT22;22399;51.346;12.372;2023-10-08T04:55:13;11.50;99.90
36374;DHT22;22399;51.346;12.372;2023-10-08T04:57:47;11.50;99.90
36374;DHT22;22399;51.346;12.372;2023-10-08T05:00:19;11.40;99.90
36374;DHT22;22399;51.346;12.372;2023-10-08T05:03:08;11.40;99.90
36374;DHT22;22399;51.346;12.372;2023-10-08T05:05:42;11.40;99.90
36374;DHT22;22399;51.346;12.372;2023-10-08T05:08:34;11.40;99.90
36374;DHT22;22399;51.346;12.372;2023-10-08T05:11:14;11.40;99.90
36374;DHT22;22399;51.346;12.372;2023-10-08T05:13:52;11.40;99.90
36374;DHT22;22399;51.346;12.372;2023-10-08T05:16:34;11.40;99.90
36374;DHT22;22399;51.346;12.372;2023-10-08T05:19:11;11.40;99.90
36374;DHT22;22399;51.346;12.372;2023-10-08T05:22:04;11.40;99.90
36374;DHT22;22399;51.346;12.372;2023-10-08T05:24:46;11.30;99.90
36374;DHT22;22399;51.346;12.372;2023-10-08T05:27:35;11.30;99.90
36374;DHT22;22399;51.346;12.372;2023-10-08T05:30:25;11.20;99.90
36374;DHT22;22399;51.346;12.372;2023-10-08T05:32:58;11.10;99.90
36374;DHT22;22399;51.346;12.372;2023-10-08T05:35:51;11.10;99.90
36374;DHT22;22399;51.346;12.372;2023-10-08T05:38:30;11.10;99.90
36374;DHT22;22399;51.346;12.372;2023-10-08T05:41:16;11.10;99.90
36374;DHT22;22399;51.346;12.372;2023-10-08T05:44:06;11.10;99.90
36374;DHT22;22399;51.346;12.372;2023-10-08T05:46:51;11.10;99.90
36374;DHT22;22399;51.346;12.372;2023-10-08T05:49:45;11.10;99.90
36374;DHT22;22399;51.346;12.372;2023-10-08T05:52:42;11.10;99.90
36374;DHT22;22399;51.346;12.372;2023-10-08T05:55:17;11.00;99.90
36374;DHT22;22399;51.346;12.372;2023-10-08T05:57:53;11.00;99.90
36374;DHT22;22399;51.346;12.372;2023-10-08T06:00:40;11.00;99.90
36374;DHT22;22399;51.346;12.372;2023-10-08T06:03:32;11.00;99.90
36374;DHT22;22399;51.346;12.372;2023-10-08T06:06:06;11.00;99.90
36374;DHT22;22399;51.346;12.372;2023-10-08T06:08:52;11.00;99.90
36374;DHT22;22399;51.346;12.372;2023-10-08T06:11:34;11.00;99.90
36374;DHT22;22399;51.346;12.372;2023-10-08T06:14:12;11.00;99.90
36374;DHT22;22399;51.346;12.372;2023-10-08T06:16:55;11.00;99.90
36374;DHT22;22399;51.346;12.372;2023-10-08T06:19:41;11.00;99.90
36374;DHT22;22399;51.346;12.372;2023-10-08T06:22:11;11.00;99.90
36374;DHT22;22399;51.346;12.372;2023-10-08T06:24:39;11.00;99.90
36374;DHT22;22399;51.346;12.372;2023-10-08T06:27:07;11.00;99.90
36374;DHT22;22399;51.346;12.372;2023-10-08T06:29:36;11.10;99.90
36374;DHT22;22399;51.346;12.372;2023-10-08T06:32:11;11.10;99.90
36374;DHT22;22399;51.346;12.372;2023-10-08T06:34:40;11.00;99.90
36374;DHT22;22399;51.346;12.372;2023-10-08T06:37:08;11.00;99.90
36374;DHT22;22399;51.346;12.372;2023-10-08T06:39:44;11.00;99.90
36374;DHT22;22399;51.346;12.372;2023-10-08T06:42:15;11.10;99.90
36374;DHT22;22399;51.346;12.372;2023-10-08T06:44:45;11.10;99.90
36374;DHT22;22399;51.346;12.372;2023-10-08T06:47:15;11.20;99.90
36374;DHT22;22399;51.346;12.372;2023-10-08T06:49:46;11.20;99.90
36374;DHT22;22399;51.346;12.372;2023-10-08T06:52:14;11.30;99.90
36374;DHT22;22399;51.346;12.372;2023-10-08T06:54:44;11.30;99.90
36374;DHT22;22399;51.346;12.372;2023-10-08T06:57:14;11.40;99.90
36374;DHT22;22399;51.346;12.372;2023-10-08T06:59:47;11.40;99.90
36374;DHT22;22399;51.346;12.372;2023-10-08T07:02:17;11.40;99.90
36374;DHT22;22399;51.346;12.372;2023-10-08T07:04:47;11.40;99.90
36374;DHT22;22399;51.346;12.372;2023-10-08T07:07:15;11.40;99.90
36374;DHT22;22399;51.346;12.372;2023-10-08T07:09:47;11.40;99.90
36374;DHT22;22399;51.346;12.372;2023-10-08T07:12:19;11.40;99.90
36374;DHT22;22399;51.346;12.372;2023-10-08T07:14:52;11.30;99.90
36374;DHT22;22399;51.346;12.372;2023-10-08T07:17:21;11.30;99.90
36374;DHT22;22399;51.346;12.372;2023-10-08T07:19:54;11.20;99.90
36374;DHT22;22399;51.346;12.372;2023-10-08T07:22:25;11.20;99.90
36374;DHT22;22399;51.346;12.372;2023-10-08T07:24:57;11.20;99.90
36374;DHT22;22399;51.346;12.372;2023-10-08T07:27:26;11.20;99.90
36374;DHT22;22399;51.346;12.372;2023-10-08T07:29:59;11.20;99.90
36374;DHT22;22399;51.346;12.372;2023-10-08T07:32:30;11.20;99.90
36374;DHT22;22399;51.346;12.372;2023-10-08T07:34:58;11.20;99.90
36374;DHT22;22399;51.346;12.372;2023-10-08T07:37:42;11.20;99.90
36374;DHT22;22399;51.346;12.372;2023-10-08T07:40:14;11.20;99.90
36374;DHT22;22399;51.346;12.372;2023-10-08T07:42:43;11.30;99.90
36374;DHT22;22399;51.346;12.372;2023-10-08T07:45:12;11.30;99.90
36374;DHT22;22399;51.346;12.372;2023-10-08T07:47:45;11.20;99.90
36374;DHT22;22399;51.346;12.372;2023-10-08T07:50:14;11.20;99.90
36374;DHT22;22399;51.346;12.372;2023-10-08T07:52:43;11.20;99.90
36374;DHT22;22399;51.346;12.372;2023-10-08T07:55:13;11.20;99.90
36374;DHT22;22399;51.346;12.372;2023-10-08T07:57:45;11.10;99.90
36374;DHT22;22399;51.346;12.372;2023-10-08T08:00:15;11.10;99.90
36374;DHT22;22399;51.346;12.372;2023-10-08T08:02:51;11.10;99.90
36374;DHT22;22399;51.346;12.372;2023-10-08T08:05:22;11.10;99.90
36374;DHT22;22399;51.346;12.372;2023-10-08T08:07:52;11.10;99.90
36374;DHT22;22399;51.346;12.372;2023-10-08T08:10:25;11.00;99.90
36374;DHT22;22399;51.346;12.372;2023-10-08T08:12:53;11.10;99.90
36374;DHT22;22399;51.346;12.372;2023-10-08T08:15:24;11.10;99.90
36374;DHT22;22399;51.346;12.372;2023-10-08T08:17:55;11.20;99.90
36374;DHT22;22399;51.346;12.372;2023-10-08T08:20:23;11.20;99.90
36374;DHT22;22399;51.346;12.372;2023-10-08T08:23:02;11.30;99.90
36374;DHT22;22399;51.346;12.372;2023-10-08T08:25:39;11.30;99.90
36374;DHT22;22399;51.346;12.372;2023-10-08T08:28:22;11.30;99.90
36374;DHT22;22399;51.346;12.372;2023-10-08T08:30:52;11.40;99.90
36374;DHT22;22399;51.346;12.372;2023-10-08T08:33:22;11.50;99.90
36374;DHT22;22399;51.346;12.372;2023-10-08T08:36:00;11.50;99.90
36374;DHT22;22399;51.346;12.372;2023-10-08T08:38:31;11.50;99.90
36374;DHT22;22399;51.346;12.372;2023-10-08T08:41:05;11.70;99.90
36374;DHT22;22399;51.346;12.372;2023-10-08T08:43:35;11.80;99.90
36374;DHT22;22399;51.346;12.372;2023-10-08T08:46:04;11.90;99.90
36374;DHT22;22399;51.346;12.372;2023-10-08T08:48:34;11.90;99.90
36374;DHT22;22399;51.346;12.372;2023-10-08T08:51:06;12.00;99.90
36374;DHT22;22399;51.346;12.372;2023-10-08T08:53:36;12.00;99.90
36374;DHT22;22399;51.346;12.372;2023-10-08T08:56:08;12.20;99.90
36374;DHT22;22399;51.346;12.372;2023-10-08T08:58:37;12.30;99.90
36374;DHT22;22399;51.346;12.372;2023-10-08T09:01:10;12.40;99.90
36374;DHT22;22399;51.346;12.372;2023-10-08T09:03:40;12.40;99.90
36374;DHT22;22399;51.346;12.372;2023-10-08T09:06:09;12.50;99.90
36374;DHT22;22399;51.346;12.372;2023-10-08T09:08:38;12.50;99.90
36374;DHT22;22399;51.346;12.372;2023-10-08T09:11:16;12.70;99.90
36374;DHT22;22399;51.346;12.372;2023-10-08T09:13:44;12.90;99.90
36374;DHT22;22399;51.346;12.372;2023-10-08T09:16:14;13.00;99.90
36374;DHT22;22399;51.346;12.372;2023-10-08T09:18:43;13.20;99.90
36374;DHT22;22399;51.346;12.372;2023-10-08T09:21:14;13.30;99.90
36374;DHT22;22399;51.346;12.372;2023-10-08T09:23:50;13.50;99.90
36374;DHT22;22399;51.346;12.372;2023-10-08T09:26:22;13.60;99.90
36374;DHT22;22399;51.346;12.372;2023-10-08T09:28:52;13.70;99.90
36374;DHT22;22399;51.346;12.372;2023-10-08T09:31:23;13.90;99.90
36374;DHT22;22399;51.346;12.372;2023-10-08T09:33:55;14.10;99.90
36374;DHT22;22399;51.346;12.372;2023-10-08T09:36:24;14.20;99.90
36374;DHT22;22399;51.346;12.372;2023-10-08T09:39:02;14.20;99.90
36374;DHT22;22399;51.346;12.372;2023-10-08T09:41:33;14.30;99.90
36374;DHT22;22399;51.346;12.372;2023-10-08T09:44:04;14.30;99.90
36374;DHT22;22399;51.346;12.372;2023-10-08T09:46:40;14.30;99.90
36374;DHT22;22399;51.346;12.372;2023-10-08T09:49:13;14.20;99.90
36374;DHT22;22399;51.346;12.372;2023-10-08T09:51:46;14.10;99.90
36374;DHT22;22399;51.346;12.372;2023-10-08T09:54:20;14.10;99.90
36374;DHT22;22399;51.346;12.372;2023-10-08T09:56:50;14.00;99.90
36374;DHT22;22399;51.346;12.372;2023-10-08T09:59:20;14.00;99.90
36374;DHT22;22399;51.346;12.372;2023-10-08T10:01:50;13.90;99.90
36374;DHT22;22399;51.346;12.372;2023-10-08T10:04:24;13.90;99.90
36374;DHT22;22399;51.346;12.372;2023-10-08T10:06:53;13.80;99.90
36374;DHT22;22399;51.346;12.372;2023-10-08T10:09:23;13.80;99.90
36374;DHT22;22399;51.346;12.372;2023-10-08T10:11:54;13.70;99.90
36374;DHT22;22399;51.346;12.372;2023-10-08T10:14:24;13.70;99.90
36374;DHT22;22399;51.346;12.372;2023-10-08T10:17:09;13.70;99.90
36374;DHT22;22399;51.346;12.372;2023-10-08T10:19:45;13.70;99.90
36374;DHT22;22399;51.346;12.372;2023-10-08T10:22:14;13.80;99.90
36374;DHT22;22399;51.346;12.372;2023-10-08T10:24:57;14.00;99.90
36374;DHT22;22399;51.346;12.372;2023-10-08T10:27:28;14.20;99.90
36374;DHT22;22399;51.346;12.372;2023-10-08T10:30:02;14.50;99.90
36374;DHT22;22399;51.346;12.372;2023-10-08T10:32:36;14.60;99.90
36374;DHT22;22399;51.346;12.372;2023-10-08T10:35:05;14.80;99.90
36374;DHT22;22399;51.346;12.372;2023-10-08T10:37:38;15.00;99.90
36374;DHT22;22399;51.346;12.372;2023-10-08T10:40:09;15.10;99.90
36374;DHT22;22399;51.346;12.372;2023-10-08T10:42:41;14.90;99.90
36374;DHT22;22399;51.346;12.372;2023-10-08T10:45:15;14.90;99.90
36374;DHT22;22399;51.346;12.372;2023-10-08T10:48:03;14.70;99.90
36374;DHT22;22399;51.346;12.372;2023-10-08T10:50:41;14.70;99.90
36374;DHT22;22399;51.346;12.372;2023-10-08T10:53:17;14.90;99.90
36374;DHT22;22399;51.346;12.372;2023-10-08T10:55:47;15.10;99.90
36374;DHT22;22399;51.346;12.372;2023-10-08T10:58:27;15.30;99.90
36374;DHT22;22399;51.346;12.372;2023-10-08T11:00:56;15.50;99.90
36374;DHT22;22399;51.346;12.372;2023-10-08T11:03:26;15.70;99.90
36374;DHT22;22399;51.346;12.372;2023-10-08T11:05:58;15.80;99.90
36374;DHT22;22399;51.346;12.372;2023-10-08T11:08:33;15.90;99.90
36374;DHT22;22399;51.346;12.372;2023-10-08T11:11:03;15.90;99.90
36374;DHT22;22399;51.346;12.372;2023-10-08T11:13:36;15.90;99.90
36374;DHT22;22399;51.346;12.372;2023-10-08T11:16:08;15.90;99.90
36374;DHT22;22399;51.346;12.372;2023-10-08T11:18:44;16.00;99.90
36374;DHT22;22399;51.346;12.372;2023-10-08T11:21:14;16.20;99.90
36374;DHT22;22399;51.346;12.372;2023-10-08T11:23:45;16.40;99.90
36374;DHT22;22399;51.346;12.372;2023-10-08T11:26:24;16.50;99.90
36374;DHT22;22399;51.346;12.372;2023-10-08T11:29:02;16.60;99.90
36374;DHT22;22399;51.346;12.372;2023-10-08T11:31:33;16.80;99.90
36374;DHT22;22399;51.346;12.372;2023-10-08T11:34:07;16.90;99.90
36374;DHT22;22399;51.346;12.372;2023-10-08T11:36:41;17.10;99.90
36374;DHT22;22399;51.346;12.372;2023-10-08T11:39:20;17.30;99.90
36374;DHT22;22399;51.346;12.372;2023-10-08T11:41:58;17.70;99.90
36374;DHT22;22399;51.346;12.372;2023-10-08T11:47:08;17.70;99.90
36374;DHT22;22399;51.346;12.372;2023-10-08T11:49:41;17.60;99.90
36374;DHT22;22399;51.346;12.372;2023-10-08T11:52:16;17.60;99.90
36374;DHT22;22399;51.346;12.372;2023-10-08T11:54:48;17.50;99.90
36374;DHT22;22399;51.346;12.372;2023-10-08T11:57:20;17.80;99.90
36374;DHT22;22399;51.346;12.372;2023-10-08T11:59:50;18.30;99.90
36374;DHT22;22399;51.346;12.372;2023-10-08T12:02:24;18.60;99.90
36374;DHT22;22399;51.346;12.372;2023-10-08T12:04:54;18.90;99.90
36374;DHT22;22399;51.346;12.372;2023-10-08T12:07:25;18.90;99.90
36374;DHT22;22399;51.346;12.372;2023-10-08T12:09:55;18.70;99.90
36374;DHT22;22399;51.346;12.372;2023-10-08T12:12:23;18.70;99.90
36374;DHT22;22399;51.346;12.372;2023-10-08T12:14:54;18.80;99.90
36374;DHT22;22399;51.346;12.372;2023-10-08T12:17:24;18.90;99.90
36374;DHT22;22399;51.346;12.372;2023-10-08T12:20:06;19.20;99.90
36374;DHT22;22399;51.346;12.372;2023-10-08T12:22:50;19.50;99.90
36374;DHT22;22399;51.346;12.372;2023-10-08T12:25:19;19.60;99.90
36374;DHT22;22399;51.346;12.372;2023-10-08T12:27:47;19.60;99.90
36374;DHT22;22399;51.346;12.372;2023-10-08T12:30:16;19.90;99.90
36374;DHT22;22399;51.346;12.372;2023-10-08T12:32:46;20.20;99.90
36374;DHT22;22399;51.346;12.372;2023-10-08T12:35:14;20.20;99.90
36374;DHT22;22399;51.346;12.372;2023-10-08T12:37:43;20.00;99.90
36374;DHT22;22399;51.346;12.372;2023-10-08T12:40:11;19.80;99.90
36374;DHT22;22399;51.346;12.372;2023-10-08T12:42:53;19.50;99.90
36374;DHT22;22399;51.346;12.372;2023-10-08T12:45:21;19.50;99.90
36374;DHT22;22399;51.346;12.372;2023-10-08T12:47:51;19.70;99.90
36374;DHT22;22399;51.346;12.372;2023-10-08T12:50:20;19.70;99.90
36374;DHT22;22399;51.346;12.372;2023-10-08T12:52:57;19.20;99.90
36374;DHT22;22399;51.346;12.372;2023-10-08T12:55:31;18.50;99.90
36374;DHT22;22399;51.346;12.372;2023-10-08T12:58:06;18.10;99.90
36374;DHT22;22399;51.346;12.372;2023-10-08T13:00:37;17.90;99.90
36374;DHT22;22399;51.346;12.372;2023-10-08T13:03:10;18.00;99.90
36374;DHT22;22399;51.346;12.372;2023-10-08T13:05:42;18.20;99.90
36374;DHT22;22399;51.346;12.372;2023-10-08T13:08:12;18.50;99.90
36374;DHT22;22399;51.346;12.372;2023-10-08T13:10:41;18.50;99.90
36374;DHT22;22399;51.346;12.372;2023-10-08T13:13:11;18.50;99.90
36374;DHT22;22399;51.346;12.372;2023-10-08T13:15:40;18.50;99.90
36374;DHT22;22399;51.346;12.372;2023-10-08T13:18:12;18.00;99.90
36374;DHT22;22399;51.346;12.372;2023-10-08T13:20:41;17.70;99.90
36374;DHT22;22399;51.346;12.372;2023-10-08T13:23:12;17.50;99.90
36374;DHT22;22399;51.346;12.372;2023-10-08T13:25:40;17.70;99.90
36374;DHT22;22399;51.346;12.372;2023-10-08T13:28:08;17.90;99.90
36374;DHT22;22399;51.346;12.372;2023-10-08T13:30:38;18.10;99.90
36374;DHT22;22399;51.346;12.372;2023-10-08T13:33:07;18.60;99.90
36374;DHT22;22399;51.346;12.372;2023-10-08T13:35:38;18.90;99.90
36374;DHT22;22399;51.346;12.372;2023-10-08T13:38:06;19.10;99.90
36374;DHT22;22399;51.346;12.372;2023-10-08T13:40:40;18.80;99.90
36374;DHT22;22399;51.346;12.372;2023-10-08T13:43:30;19.00;99.90
36374;DHT22;22399;51.346;12.372;2023-10-08T13:46:03;19.00;99.90
36374;DHT22;22399;51.346;12.372;2023-10-08T13:48:34;18.30;99.90
36374;DHT22;22399;51.346;12.372;2023-10-08T13:51:06;17.50;99.90
36374;DHT22;22399;51.346;12.372;2023-10-08T13:53:41;17.00;99.90
36374;DHT22;22399;51.346;12.372;2023-10-08T13:56:12;16.40;99.90
36374;DHT22;22399;51.346;12.372;2023-10-08T13:58:42;16.00;99.90
36374;DHT22;22399;51.346;12.372;2023-10-08T14:01:13;15.70;99.90
36374;DHT22;22399;51.346;12.372;2023-10-08T14:03:49;15.70;99.90
36374;DHT22;22399;51.346;12.372;2023-10-08T14:06:22;15.90;99.90
36374;DHT22;22399;51.346;12.372;2023-10-08T14:08:52;16.60;99.90
36374;DHT22;22399;51.346;12.372;2023-10-08T14:11:22;16.80;99.90
36374;DHT22;22399;51.346;12.372;2023-10-08T14:13:51;16.70;99.90
36374;DHT22;22399;51.346;12.372;2023-10-08T14:16:20;16.60;99.90
36374;DHT22;22399;51.346;12.372;2023-10-08T14:18:50;17.10;99.90
36374;DHT22;22399;51.346;12.372;2023-10-08T14:21:23;17.00;99.90
36374;DHT22;22399;51.346;12.372;2023-10-08T14:23:51;16.70;99.90
36374;DHT22;22399;51.346;12.372;2023-10-08T14:26:21;17.00;99.90
36374;DHT22;22399;51.346;12.372;2023-10-08T14:28:49;17.60;99.90
36374;DHT22;22399;51.346;12.372;2023-10-08T14:31:24;17.80;99.90
36374;DHT22;22399;51.346;12.372;2023-10-08T14:33:54;18.00;99.70
36374;DHT22;22399;51.346;12.372;2023-10-08T14:36:34;17.70;98.80
36374;DHT22;22399;51.346;12.372;2023-10-08T14:39:20;17.20;99.90
36374;DHT22;22399;51.346;12.372;2023-10-08T14:42:20;16.60;99.90
36374;DHT22;22399;51.346;12.372;2023-10-08T14:45:06;16.10;99.90
36374;DHT22;22399;51.346;12.372;2023-10-08T14:47:38;15.70;99.90
36374;DHT22;22399;51.346;12.372;2023-10-08T14:50:09;15.50;99.90
36374;DHT22;22399;51.346;12.372;2023-10-08T14:52:45;15.30;99.90
36374;DHT22;22399;51.346;12.372;2023-10-08T14:55:13;15.10;99.90
36374;DHT22;22399;51.346;12.372;2023-10-08T14:57:43;14.90;99.90
36374;DHT22;22399;51.346;12.372;2023-10-08T15:00:12;14.80;99.90
36374;DHT22;22399;51.346;12.372;2023-10-08T15:02:41;14.70;99.90
36374;DHT22;22399;51.346;12.372;2023-10-08T15:05:09;14.80;99.90
36374;DHT22;22399;51.346;12.372;2023-10-08T15:07:38;14.80;99.90
36374;DHT22;22399;51.346;12.372;2023-10-08T15:10:08;14.80;99.90
36374;DHT22;22399;51.346;12.372;2023-10-08T15:12:37;14.90;99.90
36374;DHT22;22399;51.346;12.372;2023-10-08T15:15:07;15.00;99.90
36374;DHT22;22399;51.346;12.372;2023-10-08T15:17:41;15.00;99.90
36374;DHT22;22399;51.346;12.372;2023-10-08T15:20:11;14.90;99.90
36374;DHT22;22399;51.346;12.372;2023-10-08T15:22:42;14.80;99.90
36374;DHT22;22399;51.346;12.372;2023-10-08T15:25:13;14.70;99.90
36374;DHT22;22399;51.346;12.372;2023-10-08T15:27:44;14.50;99.90
36374;DHT22;22399;51.346;12.372;2023-10-08T15:30:16;14.30;99.90
36374;DHT22;22399;51.346;12.372;2023-10-08T15:32:47;14.20;99.90
36374;DHT22;22399;51.346;12.372;2023-10-08T15:35:17;14.00;99.90
36374;DHT22;22399;51.346;12.372;2023-10-08T15:37:47;14.00;99.90
36374;DHT22;22399;51.346;12.372;2023-10-08T15:40:17;13.90;99.90
36374;DHT22;22399;51.346;12.372;2023-10-08T15:42:47;13.80;99.90
36374;DHT22;22399;51.346;12.372;2023-10-08T15:45:19;13.80;99.90
36374;DHT22;22399;51.346;12.372;2023-10-08T15:47:48;13.80;99.90
36374;DHT22;22399;51.346;12.372;2023-10-08T15:50:18;13.80;99.90
36374;DHT22;22399;51.346;12.372;2023-10-08T15:52:48;13.90;99.90
36374;DHT22;22399;51.346;12.372;2023-10-08T15:55:18;13.90;99.90